sensor_id;sensor_type;location;lat;lon;timestamp;temperature;humidity
33460;DHT22;19795;53.160;6.612;2023-01-23T05:05:10;2.40;99.90
33460;DHT22;19795;53.160;6.612;2023-01-23T05:07:37;2.60;99.90
33460;DHT22;19795;53.160;6.612;2023-01-23T05:10:04;2.30;99.90
33460;DHT22;19795;53.160;6.612;2023-01-23T05:15:06;2.40;99.90
33460;DHT22;19795;53.160;6.612;2023-01-23T05:17:32;2.30;99.90
33460;DHT22;19795;53.160;6.612;2023-01-23T05:19:58;2.50;99.90
33460;DHT22;19795;53.160;6.612;2023-01-23T05:22:23;2.40;99.90
33460;DHT22;19795;53.160;6.612;2023-01-23T05:24:49;2.60;99.90
33460;DHT22;19795;53.160;6.612;2023-01-23T05:27:15;2.30;99.90
33460;DHT22;19795;53.160;6.612;2023-01-23T05:29:40;2.30;99.90
33460;DHT22;19795;53.160;6.612;2023-01-23T05:32:06;2.30;99.90
33460;DHT22;19795;53.160;6.612;2023-01-23T05:34:32;2.40;99.90
33460;DHT22;19795;53.160;6.612;2023-01-23T05:36:57;2.30;99.90
33460;DHT22;19795;53.160;6.612;2023-01-23T05:39:23;2.30;99.90
33460;DHT22;19795;53.160;6.612;2023-01-23T05:41:49;2.30;99.90
33460;DHT22;19795;53.160;6.612;2023-01-23T05:44:14;2.30;99.90
33460;DHT22;19795;53.160;6.612;2023-01-23T05:46:43;2.30;99.90
33460;DHT22;19795;53.160;6.612;2023-01-23T05:49:09;2.30;99.90
33460;DHT22;19795;53.160;6.612;2023-01-23T05:51:34;2.40;99.90
33460;DHT22;19795;53.160;6.612;2023-01-23T05:54:01;2.30;99.90
33460;DHT22;19795;53.160;6.612;2023-01-23T05:56:27;2.30;99.90
33460;DHT22;19795;53.160;6.612;2023-01-23T05:58:53;2.50;99.90
33460;DHT22;19795;53.160;6.612;2023-01-23T06:01:19;2.30;99.90
33460;DHT22;19795;53.160;6.612;2023-01-23T06:03:44;2.30;99.90
33460;DHT22;19795;53.160;6.612;2023-01-23T06:06:10;2.50;99.90
33460;DHT22;19795;53.160;6.612;2023-01-23T06:08:36;2.30;99.90
33460;DHT22;19795;53.160;6.612;2023-01-23T06:11:02;2.20;99.90
33460;DHT22;19795;53.160;6.612;2023-01-23T06:13:28;2.20;99.90
33460;DHT22;19795;53.160;6.612;2023-01-23T06:15:54;2.20;99.90
33460;DHT22;19795;53.160;6.612;2023-01-23T06:18:21;2.30;99.90
33460;DHT22;19795;53.160;6.612;2023-01-23T06:20:47;2.30;99.90
33460;DHT22;19795;53.160;6.612;2023-01-23T06:23:13;2.30;99.90
33460;DHT22;19795;53.160;6.612;2023-01-23T06:25:39;2.20;99.90
33460;DHT22;19795;53.160;6.612;2023-01-23T06:28:05;2.20;99.90
33460;DHT22;19795;53.160;6.612;2023-01-23T06:30:31;2.20;99.90
33460;DHT22;19795;53.160;6.612;2023-01-23T06:32:56;2.20;99.90
33460;DHT22;19795;53.160;6.612;2023-01-23T06:35:22;2.20;99.90
33460;DHT22;19795;53.160;6.612;2023-01-23T06:37:47;2.20;99.90
33460;DHT22;19795;53.160;6.612;2023-01-23T06:40:13;2.20;99.90
33460;DHT22;19795;53.160;6.612;2023-01-23T06:42:40;2.10;99.90
33460;DHT22;19795;53.160;6.612;2023-01-23T06:45:08;2.20;99.90
33460;DHT22;19795;53.160;6.612;2023-01-23T06:47:34;2.20;99.90
33460;DHT22;19795;53.160;6.612;2023-01-23T06:50:00;2.20;99.90
33460;DHT22;19795;53.160;6.612;2023-01-23T06:52:27;2.10;99.90
33460;DHT22;19795;53.160;6.612;2023-01-23T06:54:53;2.10;99.90
33460;DHT22;19795;53.160;6.612;2023-01-23T06:57:18;2.20;99.90
33460;DHT22;19795;53.160;6.612;2023-01-23T06:59:44;2.30;99.90
33460;DHT22;19795;53.160;6.612;2023-01-23T07:02:10;2.20;99.90
33460;DHT22;19795;53.160;6.612;2023-01-23T07:04:36;2.20;99.90
33460;DHT22;19795;53.160;6.612;2023-01-23T07:07:02;2.20;99.90
33460;DHT22;19795;53.160;6.612;2023-01-23T07:09:28;2.20;99.90
33460;DHT22;19795;53.160;6.612;2023-01-23T07:11:53;2.20;99.90
33460;DHT22;19795;53.160;6.612;2023-01-23T07:14:19;2.20;99.90
33460;DHT22;19795;53.160;6.612;2023-01-23T07:16:45;2.30;99.90
33460;DHT22;19795;53.160;6.612;2023-01-23T07:19:11;2.30;99.90
33460;DHT22;19795;53.160;6.612;2023-01-23T07:21:36;2.20;99.90
33460;DHT22;19795;53.160;6.612;2023-01-23T07:24:02;2.20;99.90
33460;DHT22;19795;53.160;6.612;2023-01-23T07:26:28;2.30;99.90
33460;DHT22;19795;53.160;6.612;2023-01-23T07:28:54;2.20;99.90
33460;DHT22;19795;53.160;6.612;2023-01-23T07:31:20;2.30;99.90
33460;DHT22;19795;53.160;6.612;2023-01-23T07:33:45;2.30;99.90
33460;DHT22;19795;53.160;6.612;2023-01-23T07:36:11;2.30;99.90
33460;DHT22;19795;53.160;6.612;2023-01-23T07:38:39;2.30;99.90
33460;DHT22;19795;53.160;6.612;2023-01-23T07:41:05;2.40;99.90
33460;DHT22;19795;53.160;6.612;2023-01-23T07:43:31;2.50;99.90
33460;DHT22;19795;53.160;6.612;2023-01-23T07:46:00;2.30;99.90
33460;DHT22;19795;53.160;6.612;2023-01-23T07:48:26;2.30;99.90
33460;DHT22;19795;53.160;6.612;2023-01-23T07:50:53;2.30;99.90
33460;DHT22;19795;53.160;6.612;2023-01-23T07:53:19;2.50;99.90
33460;DHT22;19795;53.160;6.612;2023-01-23T07:55:45;2.30;99.90
33460;DHT22;19795;53.160;6.612;2023-01-23T07:58:10;2.60;99.90
33460;DHT22;19795;53.160;6.612;2023-01-23T08:00:36;2.30;99.90
33460;DHT22;19795;53.160;6.612;2023-01-23T08:03:01;2.40;99.90
33460;DHT22;19795;53.160;6.612;2023-01-23T08:05:27;2.30;99.90
33460;DHT22;19795;53.160;6.612;2023-01-23T08:07:53;2.30;99.90
33460;DHT22;19795;53.160;6.612;2023-01-23T08:10:19;2.30;99.90
33460;DHT22;19795;53.160;6.612;2023-01-23T08:12:44;2.30;99.90
33460;DHT22;19795;53.160;6.612;2023-01-23T08:15:10;2.40;99.90
33460;DHT22;19795;53.160;6.612;2023-01-23T08:17:36;2.40;99.90
33460;DHT22;19795;53.160;6.612;2023-01-23T08:20:02;2.50;99.90
33460;DHT22;19795;53.160;6.612;2023-01-23T08:22:28;2.40;99.90
33460;DHT22;19795;53.160;6.612;2023-01-23T08:24:53;2.40;99.90
33460;DHT22;19795;53.160;6.612;2023-01-23T08:27:19;2.40;99.90
33460;DHT22;19795;53.160;6.612;2023-01-23T08:29:45;2.40;99.90
33460;DHT22;19795;53.160;6.612;2023-01-23T08:32:10;2.40;99.90
33460;DHT22;19795;53.160;6.612;2023-01-23T08:34:36;2.60;99.90
33460;DHT22;19795;53.160;6.612;2023-01-23T08:37:02;2.60;99.90
33460;DHT22;19795;53.160;6.612;2023-01-23T08:39:27;2.70;99.90
33460;DHT22;19795;53.160;6.612;2023-01-23T08:41:53;2.60;99.90
33460;DHT22;19795;53.160;6.612;2023-01-23T08:44:19;2.60;99.90
33460;DHT22;19795;53.160;6.612;2023-01-23T08:46:45;2.60;99.90
33460;DHT22;19795;53.160;6.612;2023-01-23T08:49:11;2.60;99.90
33460;DHT22;19795;53.160;6.612;2023-01-23T08:51:37;2.70;99.90
33460;DHT22;19795;53.160;6.612;2023-01-23T08:54:02;2.70;99.90
33460;DHT22;19795;53.160;6.612;2023-01-23T08:56:28;2.70;99.90
33460;DHT22;19795;53.160;6.612;2023-01-23T08:58:54;2.70;99.90
33460;DHT22;19795;53.160;6.612;2023-01-23T09:01:22;2.70;99.90
33460;DHT22;19795;53.160;6.612;2023-01-23T09:03:50;2.80;99.90
33460;DHT22;19795;53.160;6.612;2023-01-23T09:06:17;2.70;99.90
33460;DHT22;19795;53.160;6.612;2023-01-23T09:08:44;2.70;99.90
33460;DHT22;19795;53.160;6.612;2023-01-23T09:11:11;2.70;99.90
33460;DHT22;19795;53.160;6.612;2023-01-23T09:13:37;2.70;99.90
33460;DHT22;19795;53.160;6.612;2023-01-23T09:16:04;2.80;99.90
33460;DHT22;19795;53.160;6.612;2023-01-23T09:18:30;2.70;99.90
33460;DHT22;19795;53.160;6.612;2023-01-23T09:20:56;2.80;99.90
33460;DHT22;19795;53.160;6.612;2023-01-23T09:23:23;2.70;99.90
33460;DHT22;19795;53.160;6.612;2023-01-23T09:25:49;2.80;99.90
33460;DHT22;19795;53.160;6.612;2023-01-23T09:28:14;2.80;99.90
33460;DHT22;19795;53.160;6.612;2023-01-23T09:30:40;3.00;99.90
33460;DHT22;19795;53.160;6.612;2023-01-23T09:33:06;2.80;99.90
33460;DHT22;19795;53.160;6.612;2023-01-23T09:35:33;2.90;99.90
33460;DHT22;19795;53.160;6.612;2023-01-23T09:37:58;2.80;99.90
33460;DHT22;19795;53.160;6.612;2023-01-23T09:40:27;3.00;99.90
33460;DHT22;19795;53.160;6.612;2023-01-23T09:42:56;2.90;99.90
33460;DHT22;19795;53.160;6.612;2023-01-23T09:45:24;3.00;99.90
33460;DHT22;19795;53.160;6.612;2023-01-23T09:48:18;3.30;99.90
33460;DHT22;19795;53.160;6.612;2023-01-23T09:50:55;3.10;99.90
33460;DHT22;19795;53.160;6.612;2023-01-23T09:53:24;3.00;99.90
33460;DHT22;19795;53.160;6.612;2023-01-23T09:58:35;3.00;99.90
33460;DHT22;19795;53.160;6.612;2023-01-23T10:01:02;3.10;99.90
33460;DHT22;19795;53.160;6.612;2023-01-23T10:03:31;3.10;99.90
33460;DHT22;19795;53.160;6.612;2023-01-23T10:17:27;3.10;99.90
33460;DHT22;19795;53.160;6.612;2023-01-23T10:20:09;3.20;99.90
33460;DHT22;19795;53.160;6.612;2023-01-23T10:25:21;3.10;99.90
33460;DHT22;19795;53.160;6.612;2023-01-23T10:27:49;3.20;99.90
33460;DHT22;19795;53.160;6.612;2023-01-23T10:30:33;3.20;99.90
33460;DHT22;19795;53.160;6.612;2023-01-23T10:33:12;3.20;99.90
33460;DHT22;19795;53.160;6.612;2023-01-23T10:40:52;3.20;99.90
33460;DHT22;19795;53.160;6.612;2023-01-23T10:43:37;3.20;99.90
33460;DHT22;19795;53.160;6.612;2023-01-23T10:46:30;3.20;99.90
33460;DHT22;19795;53.160;6.612;2023-01-23T10:48:55;3.10;99.90
33460;DHT22;19795;53.160;6.612;2023-01-23T10:54:24;3.20;99.90
33460;DHT22;19795;53.160;6.612;2023-01-23T10:59:42;3.30;99.90
33460;DHT22;19795;53.160;6.612;2023-01-23T11:02:35;3.30;99.90
33460;DHT22;19795;53.160;6.612;2023-01-23T11:05:50;3.30;99.90
33460;DHT22;19795;53.160;6.612;2023-01-23T11:07:53;3.30;99.90
33460;DHT22;19795;53.160;6.612;2023-01-23T11:10:22;3.40;99.90
33460;DHT22;19795;53.160;6.612;2023-01-23T11:12:50;3.30;99.90
33460;DHT22;19795;53.160;6.612;2023-01-23T11:15:31;3.40;99.90
33460;DHT22;19795;53.160;6.612;2023-01-23T11:17:59;3.50;99.90
33460;DHT22;19795;53.160;6.612;2023-01-23T11:20:34;3.60;99.90
33460;DHT22;19795;53.160;6.612;2023-01-23T11:23:01;3.70;99.90
33460;DHT22;19795;53.160;6.612;2023-01-23T11:25:39;3.60;99.90
33460;DHT22;19795;53.160;6.612;2023-01-23T11:39:02;3.80;99.90
33460;DHT22;19795;53.160;6.612;2023-01-23T11:41:32;3.70;99.90
33460;DHT22;19795;53.160;6.612;2023-01-23T11:43:58;3.70;99.90
33460;DHT22;19795;53.160;6.612;2023-01-23T11:46:38;3.60;99.90
33460;DHT22;19795;53.160;6.612;2023-01-23T11:51:40;3.90;99.90
33460;DHT22;19795;53.160;6.612;2023-01-23T11:54:14;3.90;99.90
33460;DHT22;19795;53.160;6.612;2023-01-23T12:03:10;3.90;99.90
33460;DHT22;19795;53.160;6.612;2023-01-23T12:11:13;4.10;99.90
33460;DHT22;19795;53.160;6.612;2023-01-23T12:16:43;3.90;99.90
33460;DHT22;19795;53.160;6.612;2023-01-23T12:22:09;3.90;99.90
33460;DHT22;19795;53.160;6.612;2023-01-23T12:25:01;3.90;99.90
33460;DHT22;19795;53.160;6.612;2023-01-23T12:27:43;3.80;99.90
33460;DHT22;19795;53.160;6.612;2023-01-23T12:35:29;3.70;99.90
33460;DHT22;19795;53.160;6.612;2023-01-23T12:43:44;3.60;99.90
33460;DHT22;19795;53.160;6.612;2023-01-23T12:46:21;3.70;99.90
33460;DHT22;19795;53.160;6.612;2023-01-23T12:51:42;3.70;99.90
33460;DHT22;19795;53.160;6.612;2023-01-23T12:54:16;3.60;99.90
33460;DHT22;19795;53.160;6.612;2023-01-23T12:56:44;3.60;99.90
33460;DHT22;19795;53.160;6.612;2023-01-23T13:02:36;3.60;99.90
33460;DHT22;19795;53.160;6.612;2023-01-23T13:05:20;3.60;99.90
33460;DHT22;19795;53.160;6.612;2023-01-23T13:08:08;3.60;99.90
33460;DHT22;19795;53.160;6.612;2023-01-23T13:10:39;3.60;99.90
33460;DHT22;19795;53.160;6.612;2023-01-23T13:13:26;3.60;99.90
33460;DHT22;19795;53.160;6.612;2023-01-23T13:16:11;3.70;99.90
33460;DHT22;19795;53.160;6.612;2023-01-23T13:18:38;3.60;99.90
33460;DHT22;19795;53.160;6.612;2023-01-23T13:21:23;3.60;99.90
33460;DHT22;19795;53.160;6.612;2023-01-23T13:29:59;3.50;99.90
33460;DHT22;19795;53.160;6.612;2023-01-23T13:32:28;3.60;99.90
33460;DHT22;19795;53.160;6.612;2023-01-23T13:34:53;3.60;99.90
33460;DHT22;19795;53.160;6.612;2023-01-23T13:40:18;3.60;99.90
33460;DHT22;19795;53.160;6.612;2023-01-23T13:42:43;3.50;99.90
33460;DHT22;19795;53.160;6.612;2023-01-23T13:51:10;3.50;99.90
33460;DHT22;19795;53.160;6.612;2023-01-23T13:53:44;3.60;99.90
33460;DHT22;19795;53.160;6.612;2023-01-23T13:56:29;3.80;99.90
33460;DHT22;19795;53.160;6.612;2023-01-23T13:59:31;3.60;99.90
33460;DHT22;19795;53.160;6.612;2023-01-23T14:02:50;3.50;99.90
33460;DHT22;19795;53.160;6.612;2023-01-23T14:05:13;3.50;99.90
33460;DHT22;19795;53.160;6.612;2023-01-23T14:07:44;3.50;99.90
33460;DHT22;19795;53.160;6.612;2023-01-23T14:10:32;3.50;99.90
33460;DHT22;19795;53.160;6.612;2023-01-23T14:13:03;3.50;99.90
33460;DHT22;19795;53.160;6.612;2023-01-23T14:15:30;3.50;99.90
33460;DHT22;19795;53.160;6.612;2023-01-23T14:18:18;3.50;99.90
33460;DHT22;19795;53.160;6.612;2023-01-23T14:20:45;3.40;99.90
33460;DHT22;19795;53.160;6.612;2023-01-23T14:23:24;3.40;99.90
33460;DHT22;19795;53.160;6.612;2023-01-23T14:25:50;3.50;99.90
33460;DHT22;19795;53.160;6.612;2023-01-23T14:28:17;3.50;99.90
33460;DHT22;19795;53.160;6.612;2023-01-23T14:30:56;3.40;99.90
33460;DHT22;19795;53.160;6.612;2023-01-23T14:33:23;3.50;99.90
33460;DHT22;19795;53.160;6.612;2023-01-23T14:35:50;3.40;99.90
33460;DHT22;19795;53.160;6.612;2023-01-23T14:38:30;3.30;99.90
33460;DHT22;19795;53.160;6.612;2023-01-23T14:40:57;3.40;99.90
33460;DHT22;19795;53.160;6.612;2023-01-23T14:43:25;3.40;99.90
33460;DHT22;19795;53.160;6.612;2023-01-23T14:46:02;3.40;99.90
33460;DHT22;19795;53.160;6.612;2023-01-23T14:48:32;3.40;99.90
33460;DHT22;19795;53.160;6.612;2023-01-23T14:51:08;3.50;99.90
33460;DHT22;19795;53.160;6.612;2023-01-23T14:53:39;3.40;99.90
33460;DHT22;19795;53.160;6.612;2023-01-23T14:56:05;3.50;99.90
33460;DHT22;19795;53.160;6.612;2023-01-23T14:58:32;3.40;99.90
33460;DHT22;19795;53.160;6.612;2023-01-23T15:01:00;3.50;99.90
33460;DHT22;19795;53.160;6.612;2023-01-23T15:03:38;3.40;99.90
33460;DHT22;19795;53.160;6.612;2023-01-23T15:06:18;3.40;99.90
33460;DHT22;19795;53.160;6.612;2023-01-23T15:08:44;3.40;99.90
33460;DHT22;19795;53.160;6.612;2023-01-23T15:11:11;3.30;99.90
33460;DHT22;19795;53.160;6.612;2023-01-23T15:13:46;3.30;99.90
33460;DHT22;19795;53.160;6.612;2023-01-23T15:16:18;3.30;99.90
33460;DHT22;19795;53.160;6.612;2023-01-23T15:21:30;3.30;99.90
33460;DHT22;19795;53.160;6.612;2023-01-23T15:26:35;3.20;99.90
33460;DHT22;19795;53.160;6.612;2023-01-23T15:29:24;3.20;99.90
33460;DHT22;19795;53.160;6.612;2023-01-23T15:31:52;3.20;99.90
33460;DHT22;19795;53.160;6.612;2023-01-23T15:44:39;3.20;99.90
33460;DHT22;19795;53.160;6.612;2023-01-23T15:47:06;3.20;99.90
33460;DHT22;19795;53.160;6.612;2023-01-23T15:49:33;3.10;99.90
33460;DHT22;19795;53.160;6.612;2023-01-23T15:52:08;3.20;99.90
33460;DHT22;19795;53.160;6.612;2023-01-23T15:54:38;3.20;99.90
33460;DHT22;19795;53.160;6.612;2023-01-23T15:57:04;3.50;99.90
33460;DHT22;19795;53.160;6.612;2023-01-23T15:59:32;3.10;99.90
33460;DHT22;19795;53.160;6.612;2023-01-23T16:01:58;3.10;99.90
33460;DHT22;19795;53.160;6.612;2023-01-23T16:04:24;3.00;99.90
33460;DHT22;19795;53.160;6.612;2023-01-23T16:06:49;3.00;99.90
33460;DHT22;19795;53.160;6.612;2023-01-23T16:09:36;3.00;99.90
33460;DHT22;19795;53.160;6.612;2023-01-23T16:12:03;3.00;99.90
33460;DHT22;19795;53.160;6.612;2023-01-23T16:14:28;3.00;99.90
33460;DHT22;19795;53.160;6.612;2023-01-23T16:16:54;3.00;99.90
33460;DHT22;19795;53.160;6.612;2023-01-23T16:19:20;2.90;99.90
33460;DHT22;19795;53.160;6.612;2023-01-23T16:21:46;2.90;99.90
33460;DHT22;19795;53.160;6.612;2023-01-23T16:24:20;2.90;99.90
33460;DHT22;19795;53.160;6.612;2023-01-23T16:26:49;2.90;99.90
33460;DHT22;19795;53.160;6.612;2023-01-23T16:29:29;3.00;99.90
33460;DHT22;19795;53.160;6.612;2023-01-23T16:31:56;3.00;99.90
33460;DHT22;19795;53.160;6.612;2023-01-23T16:34:23;2.90;99.90
33460;DHT22;19795;53.160;6.612;2023-01-23T16:36:51;2.90;99.90
33460;DHT22;19795;53.160;6.612;2023-01-23T16:39:20;3.00;99.90
33460;DHT22;19795;53.160;6.612;2023-01-23T16:41:50;2.90;99.90
33460;DHT22;19795;53.160;6.612;2023-01-23T16:44:19;3.00;99.90
33460;DHT22;19795;53.160;6.612;2023-01-23T16:46:47;2.90;99.90
33460;DHT22;19795;53.160;6.612;2023-01-23T16:49:13;2.90;99.90
33460;DHT22;19795;53.160;6.612;2023-01-23T16:51:41;2.90;99.90
33460;DHT22;19795;53.160;6.612;2023-01-23T16:54:13;3.00;99.90
33460;DHT22;19795;53.160;6.612;2023-01-23T16:56:41;2.90;99.90
33460;DHT22;19795;53.160;6.612;2023-01-23T16:59:15;2.90;99.90
33460;DHT22;19795;53.160;6.612;2023-01-23T17:01:44;2.90;99.90
33460;DHT22;19795;53.160;6.612;2023-01-23T17:04:13;2.90;99.90
33460;DHT22;19795;53.160;6.612;2023-01-23T17:06:39;2.90;99.90
33460;DHT22;19795;53.160;6.612;2023-01-23T17:09:05;2.90;99.90
33460;DHT22;19795;53.160;6.612;2023-01-23T17:11:46;2.90;99.90
33460;DHT22;19795;53.160;6.612;2023-01-23T17:14:24;2.90;99.90
33460;DHT22;19795;53.160;6.612;2023-01-23T17:16:52;2.90;99.90
33460;DHT22;19795;53.160;6.612;2023-01-23T17:19:30;2.90;99.90
33460;DHT22;19795;53.160;6.612;2023-01-23T17:21:58;3.00;99.90
33460;DHT22;19795;53.160;6.612;2023-01-23T17:24:24;3.00;99.90
33460;DHT22;19795;53.160;6.612;2023-01-23T17:26:50;2.90;99.90
33460;DHT22;19795;53.160;6.612;2023-01-23T17:29:16;2.90;99.90
33460;DHT22;19795;53.160;6.612;2023-01-23T17:31:41;2.90;99.90
33460;DHT22;19795;53.160;6.612;2023-01-23T17:34:16;2.90;99.90
33460;DHT22;19795;53.160;6.612;2023-01-23T17:36:43;2.80;99.90
33460;DHT22;19795;53.160;6.612;2023-01-23T17:39:09;2.80;99.90
33460;DHT22;19795;53.160;6.612;2023-01-23T17:41:35;2.80;99.90
33460;DHT22;19795;53.160;6.612;2023-01-23T17:44:01;2.80;99.90
33460;DHT22;19795;53.160;6.612;2023-01-23T17:46:28;2.90;99.90
33460;DHT22;19795;53.160;6.612;2023-01-23T17:48:55;2.80;99.90
33460;DHT22;19795;53.160;6.612;2023-01-23T17:51:25;2.90;99.90
33460;DHT22;19795;53.160;6.612;2023-01-23T17:53:51;3.00;99.90
33460;DHT22;19795;53.160;6.612;2023-01-23T17:56:17;2.90;99.90
33460;DHT22;19795;53.160;6.612;2023-01-23T17:58:43;2.90;99.90
33460;DHT22;19795;53.160;6.612;2023-01-23T18:01:21;2.90;99.90
33460;DHT22;19795;53.160;6.612;2023-01-23T18:03:51;3.00;99.90
33460;DHT22;19795;53.160;6.612;2023-01-23T18:06:17;2.90;99.90
33460;DHT22;19795;53.160;6.612;2023-01-23T18:08:44;2.80;99.90
33460;DHT22;19795;53.160;6.612;2023-01-23T18:11:18;2.90;99.90
33460;DHT22;19795;53.160;6.612;2023-01-23T18:13:53;2.80;99.90
33460;DHT22;19795;53.160;6.612;2023-01-23T18:16:29;2.90;99.90
33460;DHT22;19795;53.160;6.612;2023-01-23T18:21:37;2.90;99.90
33460;DHT22;19795;53.160;6.612;2023-01-23T18:24:03;2.90;99.90
33460;DHT22;19795;53.160;6.612;2023-01-23T18:26:37;2.90;99.90
33460;DHT22;19795;53.160;6.612;2023-01-23T18:43:38;2.80;99.90
33460;DHT22;19795;53.160;6.612;2023-01-23T18:46:17;2.90;99.90
33460;DHT22;19795;53.160;6.612;2023-01-23T18:48:46;2.80;99.90
33460;DHT22;19795;53.160;6.612;2023-01-23T18:54:19;2.80;99.90
33460;DHT22;19795;53.160;6.612;2023-01-23T18:57:20;2.80;99.90
33460;DHT22;19795;53.160;6.612;2023-01-23T19:02:31;2.80;99.90
33460;DHT22;19795;53.160;6.612;2023-01-23T19:07:41;2.80;99.90
33460;DHT22;19795;53.160;6.612;2023-01-23T19:10:13;2.80;99.90
33460;DHT22;19795;53.160;6.612;2023-01-23T19:15:50;2.80;99.90
33460;DHT22;19795;53.160;6.612;2023-01-23T19:23:53;2.70;99.90
33460;DHT22;19795;53.160;6.612;2023-01-23T19:26:20;2.80;99.90
33460;DHT22;19795;53.160;6.612;2023-01-23T19:28:46;2.80;99.90
33460;DHT22;19795;53.160;6.612;2023-01-23T19:31:22;2.80;99.90
33460;DHT22;19795;53.160;6.612;2023-01-23T19:33:49;2.80;99.90
33460;DHT22;19795;53.160;6.612;2023-01-23T19:36:14;2.70;99.90
33460;DHT22;19795;53.160;6.612;2023-01-23T19:38:40;2.70;99.90
33460;DHT22;19795;53.160;6.612;2023-01-23T19:41:22;2.80;99.90
33460;DHT22;19795;53.160;6.612;2023-01-23T19:43:55;2.70;99.90
33460;DHT22;19795;53.160;6.612;2023-01-23T19:46:25;2.70;99.90
33460;DHT22;19795;53.160;6.612;2023-01-23T19:48:52;2.80;99.90
33460;DHT22;19795;53.160;6.612;2023-01-23T19:51:19;2.80;99.90
33460;DHT22;19795;53.160;6.612;2023-01-23T19:53:46;2.80;99.90
33460;DHT22;19795;53.160;6.612;2023-01-23T19:56:14;2.70;99.90
33460;DHT22;19795;53.160;6.612;2023-01-23T19:58:40;2.70;99.90
33460;DHT22;19795;53.160;6.612;2023-01-23T20:01:20;2.80;99.90
33460;DHT22;19795;53.160;6.612;2023-01-23T20:03:48;2.70;99.90
33460;DHT22;19795;53.160;6.612;2023-01-23T20:06:14;2.70;99.90
33460;DHT22;19795;53.160;6.612;2023-01-23T20:08:39;2.60;99.90
33460;DHT22;19795;53.160;6.612;2023-01-23T20:11:05;2.60;99.90
33460;DHT22;19795;53.160;6.612;2023-01-23T20:13:31;2.60;99.90
33460;DHT22;19795;53.160;6.612;2023-01-23T20:15:56;2.70;99.90
33460;DHT22;19795;53.160;6.612;2023-01-23T20:18:22;2.70;99.90
33460;DHT22;19795;53.160;6.612;2023-01-23T20:20:48;2.70;99.90
33460;DHT22;19795;53.160;6.612;2023-01-23T20:23:13;2.70;99.90
33460;DHT22;19795;53.160;6.612;2023-01-23T20:25:39;2.70;99.90
33460;DHT22;19795;53.160;6.612;2023-01-23T20:28:05;2.60;99.90
33460;DHT22;19795;53.160;6.612;2023-01-23T20:30:30;2.60;99.90
33460;DHT22;19795;53.160;6.612;2023-01-23T20:32:56;2.60;99.90
33460;DHT22;19795;53.160;6.612;2023-01-23T20:35:22;2.60;99.90
33460;DHT22;19795;53.160;6.612;2023-01-23T20:37:47;2.60;99.90
33460;DHT22;19795;53.160;6.612;2023-01-23T20:40:13;2.60;99.90
33460;DHT22;19795;53.160;6.612;2023-01-23T20:42:39;2.60;99.90
33460;DHT22;19795;53.160;6.612;2023-01-23T20:45:06;2.60;99.90
33460;DHT22;19795;53.160;6.612;2023-01-23T20:47:34;2.60;99.90
33460;DHT22;19795;53.160;6.612;2023-01-23T20:50:00;2.60;99.90
33460;DHT22;19795;53.160;6.612;2023-01-23T20:52:26;2.60;99.90
33460;DHT22;19795;53.160;6.612;2023-01-23T20:55:11;2.60;99.90
33460;DHT22;19795;53.160;6.612;2023-01-23T20:57:37;2.60;99.90
33460;DHT22;19795;53.160;6.612;2023-01-23T21:00:21;2.60;99.90
33460;DHT22;19795;53.160;6.612;2023-01-23T21:02:47;2.60;99.90
33460;DHT22;19795;53.160;6.612;2023-01-23T21:05:12;2.60;99.90
33460;DHT22;19795;53.160;6.612;2023-01-23T21:07:39;2.60;99.90
33460;DHT22;19795;53.160;6.612;2023-01-23T21:10:05;2.60;99.90
33460;DHT22;19795;53.160;6.612;2023-01-23T21:12:31;2.60;99.90
33460;DHT22;19795;53.160;6.612;2023-01-23T21:14:57;2.50;99.90
33460;DHT22;19795;53.160;6.612;2023-01-23T21:17:23;2.60;99.90
33460;DHT22;19795;53.160;6.612;2023-01-23T21:19:49;2.60;99.90
33460;DHT22;19795;53.160;6.612;2023-01-23T21:22:14;2.60;99.90
33460;DHT22;19795;53.160;6.612;2023-01-23T21:24:40;2.50;99.90
33460;DHT22;19795;53.160;6.612;2023-01-23T21:27:06;2.50;99.90
33460;DHT22;19795;53.160;6.612;2023-01-23T21:29:32;2.50;99.90
33460;DHT22;19795;53.160;6.612;2023-01-23T21:31:58;2.50;99.90
33460;DHT22;19795;53.160;6.612;2023-01-23T21:34:25;2.60;99.90
33460;DHT22;19795;53.160;6.612;2023-01-23T21:36:51;2.60;99.90
33460;DHT22;19795;53.160;6.612;2023-01-23T21:39:17;2.60;99.90
33460;DHT22;19795;53.160;6.612;2023-01-23T21:41:43;2.50;99.90
33460;DHT22;19795;53.160;6.612;2023-01-23T21:44:10;2.50;99.90
33460;DHT22;19795;53.160;6.612;2023-01-23T21:46:36;2.50;99.90
